• Join FlightAware (Why Join?)
  • Login
  • US Flag 
06:03AM EDT


 

Airport Tracker/Info


-or-


 

Live Flight TrackerFlight Track Log ✈ CPZ5750 ✈ 07-Jul-2013 ✈ KMSP - KALB

Flight Track Log - Related Links

Times and Time Zones

All times are in EDT time to prevent confusion due to time zone crossing. See the CPZ5750 flight status page for this flight to view local times or setup timezone preferences in your user account.

Time Position Orientation Groundspeed Altitude Reporting Facility
EDT Latitude Longitude Course Direction KTS MPH feet Rate Location/Type
04:40PM 44.9333 -93.2667 70° East 201 231 2,400  Level Minneapolis TRACON
04:41PM 45.0000 -93.2833 350° North 243 280 5,500 2,340 Climbing Minneapolis TRACON
04:42PM 45.0393 -92.6211 68° East  Level FlightAware Approximate
04:42PM 45.0431 -93.1914 56° Northeast 244 281 8,100  Level Minneapolis Center
04:43PM 45.0820 -92.4715 68° East  Level FlightAware Approximate
04:43PM 45.0808 -93.0617 68° East 300 345 10,400  Level Minneapolis Center
04:44PM 45.1163 -92.3185 70° East  Level FlightAware Approximate
04:44PM 45.1178 -92.9364 67° East 350 403 11,700  Level Minneapolis Center
04:45PM 45.1543 -92.1666 70° East  Level FlightAware Approximate
04:45PM 45.1567 -92.8019 68° East 370 426 13,700  Level Minneapolis Center
04:46PM 45.1967 -92.6617 68° East 384 442 15,600 1,860 Climbing Minneapolis Center
04:47PM 45.2378 -92.5178 68° East 393 452 17,600 1,740 Climbing Minneapolis Center
04:48PM 45.2792 -92.3725 68° East 397 457 19,300 1,680 Climbing Minneapolis Center
04:49PM 45.3222 -92.1486 75° East 424 488 21,500 1,500 Climbing Minneapolis Center
04:50PM 45.3461 -91.9806 79° East 433 498 22,800 1,200 Climbing Minneapolis Center
04:51PM 45.3453 -91.8042 90° East 452 520 24,000 1,320 Climbing Minneapolis Center
04:53PM 45.3108 -91.6331 106° East 454 522 25,600 1,260 Climbing Minneapolis Center
04:54PM 45.2750 -91.4622 107° East 454 522 26,700 960 Climbing Minneapolis Center
04:55PM 45.2322 -91.2539 106° East 456 525 27,600 780 Climbing Minneapolis Center
04:56PM 45.1942 -91.0706 106° East 470 541 28,400 720 Climbing Minneapolis Center
04:57PM 45.1561 -90.8889 106° East 479 551 29,200 960 Climbing Minneapolis Center
04:58PM 45.1175 -90.7064 107° East 484 557 30,400 1,080 Climbing Minneapolis Center
04:59PM 45.0811 -90.5286 106° East 476 548 31,500 780 Climbing Minneapolis Center
05:00PM 45.0497 -90.3458 104° East 480 552 32,100 720 Climbing Minneapolis Center
05:01PM 45.0328 -90.1228 96° East 480 552 33,100 840 Climbing Minneapolis Center
05:02PM 45.0172 -89.9375 97° East 478 550 33,900 720 Climbing Minneapolis Center
05:03PM 45.0017 -89.7533 97° East 475 547 34,600 480 Climbing Minneapolis Center
05:04PM 44.9864 -89.5797 97° East 473 544 35,000 180 Climbing Minneapolis Center
05:05PM 44.9675 -89.3608 97° East 480 552 35,000  Level Minneapolis Center
05:06PM 44.9506 -89.1756 97° East 476 548 35,000  Level Minneapolis Center
05:07PM 44.9336 -88.9922 97° East 472 543 35,000  Level Minneapolis Center
05:08PM 44.9169 -88.8078 97° East 472 543 35,000  Level Minneapolis Center
05:09PM 44.8983 -88.6222 98° East 476 548 35,000  Level Minneapolis Center
05:10PM 44.8775 -88.4078 98° East 472 543 35,000  Level Minneapolis Center
05:11PM 44.8597 -88.2331 98° East 469 540 35,000  Level Minneapolis Center
05:12PM 44.8422 -88.0533 98° East 465 535 35,000  Level Minneapolis Center
05:13PM 44.8236 -87.8744 98° East 463 533 35,000  Level Minneapolis Center
05:14PM 44.8064 -87.6969 98° East 459 528 35,000  Level Minneapolis Center
05:15PM 44.7828 -87.4819 99° East 463 533 35,000  Level Minneapolis Center
05:16PM 44.7636 -87.3000 98° East 470 541 35,000  Level Minneapolis Center
05:17PM 44.7431 -87.1208 99° East 467 537 35,000  Level Minneapolis Center
05:18PM 44.7225 -86.9406 99° East 468 539 35,000  Level Minneapolis Center
05:19PM 44.7028 -86.7553 98° East 464 534 35,000  Level Minneapolis Center
05:20PM 44.6819 -86.5731 99° East 470 541 35,000 -60 Level Minneapolis Center
05:21PM 44.6611 -86.3961 99° East 464 534 34,900 -600 Descending Minneapolis Center
05:23PM 44.6381 -86.1967 99° East 460 529 33,800 -1,500 Descending Minneapolis Center
05:24PM 44.6175 -86.0253 100° East 458 527 31,900 -1,380 Descending Minneapolis Center
05:25PM 44.5964 -85.8528 100° East 456 525 31,000 -1,080 Descending Minneapolis Center
05:26PM 44.5714 -85.6422 99° East 460 529 29,700 -1,020 Descending Minneapolis Center
05:27PM 44.5489 -85.4617 100° East 470 541 29,000 -360 Descending Minneapolis Center
05:28PM 44.5264 -85.2839 100° East 468 539 29,000  Level Minneapolis Center
05:29PM 44.5047 -85.1094 100° East 460 529 29,000  Level Minneapolis Center
05:30PM 44.4819 -84.9331 100° East 461 531 29,000  Level Minneapolis Center
05:31PM 44.4583 -84.7200 99° East 463 533 29,000  Level Minneapolis Center
05:32PM 44.4403 -84.5408 98° East 466 536 29,000 -60 Level Minneapolis Center
05:33PM 44.4217 -84.3642 98° East 463 533 28,900  Descending Minneapolis Center
05:34PM 44.4022 -84.1900 99° East 457 526 29,000 -300 Climbing Minneapolis Center
05:35PM 44.3833 -84.0156 99° East 455 524 28,300 -840 Descending Minneapolis Center
05:36PM 44.3633 -83.8436 99° East 452 520 27,300 -660 Descending Minneapolis Center
05:37PM 44.3408 -83.6386 99° East 448 516 27,000 -180 Descending Minneapolis Center
05:38PM 44.3211 -83.4775 100° East 429 494 27,000  Level Minneapolis Center
05:39PM 44.3042 -83.3186 98° East 418 481 27,000  Level Minneapolis Center
05:40PM 44.2858 -83.1572 99° East 421 484 27,000  Level Minneapolis Center
05:41PM 44.2500 -83.0333 112° Southeast 420 483 27,000  Level Toronto Center
05:42PM 44.2333 -82.8667 98° East 420 483 27,000  Level Toronto Center
05:43PM 44.2000 -82.7000 106° East 420 483 27,000  Level Toronto Center
05:44PM 44.2000 -82.5333 90° East 420 483 27,000  Level Toronto Center
05:45PM 44.1833 -82.3833 99° East 420 483 27,000  Level Toronto Center
05:46PM 44.1500 -82.2333 107° East 420 483 27,000  Level Toronto Center
05:47PM 44.1167 -82.0667 106° East 420 483 27,000  Level Toronto Center
05:48PM 44.0833 -81.9333 109° East 410 472 27,000  Level Toronto Center
05:49PM 44.0333 -81.7833 115° Southeast 410 472 27,000  Level Toronto Center
05:50PM 43.9667 -81.6500 125° Southeast 410 472 27,000  Level Toronto Center
05:51PM 43.9167 -81.5333 121° Southeast 410 472 27,000  Level Toronto Center
05:52PM 43.8500 -81.3667 119° Southeast 410 472 27,000  Level Toronto Center
05:53PM 43.8000 -81.2500 121° Southeast 410 472 27,000  Level Toronto Center
05:54PM 43.7333 -81.1167 125° Southeast 420 483 27,000  Level Toronto Center
05:55PM 43.6833 -80.9500 112° Southeast 440 506 27,000  Level Toronto Center
05:56PM 43.6333 -80.8000 115° Southeast 440 506 27,000  Level Toronto Center
05:57PM 43.5667 -80.6500 121° Southeast 440 506 27,000  Level Toronto Center
05:58PM 43.5167 -80.5000 115° Southeast 440 506 27,000  Level Toronto Center
05:59PM 43.4500 -80.3667 125° Southeast 440 506 27,000  Level Toronto Center
06:00PM 43.4333 -80.1833 97° East 450 518 27,000  Level Toronto Center
06:01PM 43.4167 -80.0167 98° East 460 529 27,000  Level Toronto Center
06:02PM 43.4000 -79.8333 97° East 460 529 27,000  Level Toronto Center
06:03PM 43.3833 -79.6500 97° East 460 529 27,000  Level Toronto Center
06:04PM 43.3833 -79.5000 90° East 460 529 27,000  Level Toronto Center
06:05PM 43.3667 -79.3333 98° East 460 529 27,000  Level Toronto Center
06:06PM 43.3500 -79.1667 98° East 430 495 27,000  Level Toronto Center
06:07PM 43.3333 -79.0167 99° East 430 495 27,000  Level Toronto Center
06:08PM 43.3167 -78.8333 97° East 430 495 27,000  Level Toronto Center
06:09PM 43.3167 -78.7314 90° East 429 494 27,000  Level Cleveland Center
06:10PM 43.3011 -78.5578 97° East 434 499 27,000  Level Cleveland Center
06:11PM 43.2856 -78.3872 97° East 446 513 27,000  Level Cleveland Center
06:12PM 43.2675 -78.2111 98° East 451 519 27,000  Level Cleveland Center
06:13PM 43.2511 -78.0350 97° East 457 526 27,000  Level Cleveland Center
06:14PM 43.2347 -77.8589 97° East 462 532 27,000  Level Cleveland Center
06:15PM 43.2186 -77.7058 98° East 462 532 27,000  Level Cleveland Center
06:17PM 43.1500 -77.2500 102° East 460 529 27,000  Level Toronto Center
06:18PM 43.1500 -77.1000 90° East 460 529 27,000  Level Toronto Center
06:19PM 43.1333 -76.9167 97° East 460 529 27,000  Level Toronto Center
06:20PM 43.1167 -76.7500 98° East 460 529 27,000  Level Toronto Center
06:21PM 43.1014 -76.6122 99° East 437 503 27,000 -60 Level Boston Center
06:22PM 43.1347 -76.4408 75° East 457 526 26,900 -600 Descending Boston Center
06:23PM 43.1736 -76.2811 71° East 457 526 25,900 -1,020 Descending Boston Center
06:24PM 43.2119 -76.1269 71° East 447 514 24,900 -1,020 Descending Boston Center
06:25PM 43.2397 -75.9717 76° East 447 514 23,900 -1,020 Descending Boston Center
06:26PM 43.2175 -75.8164 101° East 447 514 22,900 -1,020 Descending Boston Center
06:27PM 43.1992 -75.6589 99° East 447 514 21,900 -1,140 Descending Boston Center
06:28PM 43.1767 -75.4894 100° East 417 480 20,700 -1,320 Descending Boston Center
06:29PM 43.1575 -75.3378 100° East 412 474 19,300 -1,620 Descending Boston Center
06:30PM 43.1383 -75.1917 100° East 407 468 17,500 -1,920 Descending Boston Center
06:31PM 43.1208 -75.0458 99° East 396 456 15,500 -2,040 Descending Boston Center
06:32PM 43.1031 -74.9086 100° East 384 442 13,500 -1,980 Descending Boston Center
06:33PM 43.0833 -74.7600 100° East 353 406 11,300 -1,260 Descending Boston Center
06:34PM 43.0647 -74.6425 102° East 339 390 11,000 -180 Descending Boston Center
06:35PM 43.0839 -74.5181 78° East 345 397 11,000  Level Boston Center
06:36PM 43.1028 -74.3881 79° East 350 403 11,000 -360 Level Boston Center
06:37PM 43.1197 -74.2406 81° East 337 388 10,300 -1,200 Descending Boston Center
06:38PM 43.1256 -74.1297 86° East 312 359 8,700 -2,040 Descending Boston Center
06:39PM 43.0936 -74.0381 115° Southeast 294 338 6,500 -2,100 Descending Boston Center
06:40PM 43.0256 -73.9850 150° Southeast 278 320 4,500 -1,740 Descending Boston Center
06:41PM 42.9597 -73.9325 150° Southeast 274 315 3,000 -900 Descending Boston Center
06:42PM 42.9061 -73.8800 144° Southeast 238 274 2,700 -480 Descending Boston Center
06:43PM 42.8464 -73.8278 147° Southeast 241 277 2,100 -600 Descending Boston Center